sensor_id;sensor_type;location;lat;lon;timestamp;temperature;humidity
20574;DHT22;10445;50.216;7.912;2023-10-08T00:01:37;14.40;98.60
20574;DHT22;10445;50.216;7.912;2023-10-08T00:04:09;14.40;99.50
20574;DHT22;10445;50.216;7.912;2023-10-08T00:06:38;14.30;99.90
20574;DHT22;10445;50.216;7.912;2023-10-08T00:09:07;14.30;99.90
20574;DHT22;10445;50.216;7.912;2023-10-08T00:11:38;14.30;99.90
20574;DHT22;10445;50.216;7.912;2023-10-08T00:14:07;14.30;99.90
20574;DHT22;10445;50.216;7.912;2023-10-08T00:16:37;14.40;99.90
20574;DHT22;10445;50.216;7.912;2023-10-08T00:19:07;14.40;99.90
20574;DHT22;10445;50.216;7.912;2023-10-08T00:21:40;14.40;99.90
20574;DHT22;10445;50.216;7.912;2023-10-08T00:24:11;14.40;99.90
20574;DHT22;10445;50.216;7.912;2023-10-08T00:26:42;14.50;99.90
20574;DHT22;10445;50.216;7.912;2023-10-08T00:29:11;14.50;99.90
20574;DHT22;10445;50.216;7.912;2023-10-08T00:31:49;14.50;99.90
20574;DHT22;10445;50.216;7.912;2023-10-08T00:34:18;14.40;99.90
20574;DHT22;10445;50.216;7.912;2023-10-08T00:36:48;14.40;99.90
20574;DHT22;10445;50.216;7.912;2023-10-08T00:39:17;14.40;99.90
20574;DHT22;10445;50.216;7.912;2023-10-08T00:41:52;14.40;99.90
20574;DHT22;10445;50.216;7.912;2023-10-08T00:44:26;14.30;99.90
20574;DHT22;10445;50.216;7.912;2023-10-08T00:46:58;14.40;99.90
20574;DHT22;10445;50.216;7.912;2023-10-08T00:49:29;14.30;99.90
20574;DHT22;10445;50.216;7.912;2023-10-08T00:52:15;14.40;99.90
20574;DHT22;10445;50.216;7.912;2023-10-08T00:55:05;14.40;99.90
20574;DHT22;10445;50.216;7.912;2023-10-08T00:57:55;14.40;99.90
20574;DHT22;10445;50.216;7.912;2023-10-08T01:00:25;14.30;99.90
20574;DHT22;10445;50.216;7.912;2023-10-08T01:03:06;14.30;99.90
20574;DHT22;10445;50.216;7.912;2023-10-08T01:05:43;14.20;99.90
20574;DHT22;10445;50.216;7.912;2023-10-08T01:08:15;14.10;99.90
20574;DHT22;10445;50.216;7.912;2023-10-08T01:10:50;14.10;99.90
20574;DHT22;10445;50.216;7.912;2023-10-08T01:13:32;14.10;99.90
20574;DHT22;10445;50.216;7.912;2023-10-08T01:16:13;14.00;99.90
20574;DHT22;10445;50.216;7.912;2023-10-08T01:18:42;14.00;99.90
20574;DHT22;10445;50.216;7.912;2023-10-08T01:21:17;13.90;99.90
20574;DHT22;10445;50.216;7.912;2023-10-08T01:24:03;13.90;99.90
20574;DHT22;10445;50.216;7.912;2023-10-08T01:26:33;13.70;99.90
20574;DHT22;10445;50.216;7.912;2023-10-08T01:29:09;13.70;99.90
20574;DHT22;10445;50.216;7.912;2023-10-08T01:31:47;13.60;99.90
20574;DHT22;10445;50.216;7.912;2023-10-08T01:34:17;13.60;99.90
20574;DHT22;10445;50.216;7.912;2023-10-08T01:36:46;13.60;99.90
20574;DHT22;10445;50.216;7.912;2023-10-08T01:39:17;13.50;99.90
20574;DHT22;10445;50.216;7.912;2023-10-08T01:41:47;13.50;99.90
20574;DHT22;10445;50.216;7.912;2023-10-08T01:44:18;13.40;99.90
20574;DHT22;10445;50.216;7.912;2023-10-08T01:46:46;13.40;99.90
20574;DHT22;10445;50.216;7.912;2023-10-08T01:49:16;13.30;99.90
20574;DHT22;10445;50.216;7.912;2023-10-08T01:51:48;13.20;99.90
20574;DHT22;10445;50.216;7.912;2023-10-08T01:54:19;13.20;99.90
20574;DHT22;10445;50.216;7.912;2023-10-08T01:56:48;13.20;99.90
20574;DHT22;10445;50.216;7.912;2023-10-08T01:59:17;13.20;99.90
20574;DHT22;10445;50.216;7.912;2023-10-08T02:01:45;13.10;99.90
20574;DHT22;10445;50.216;7.912;2023-10-08T02:04:15;13.10;99.90
20574;DHT22;10445;50.216;7.912;2023-10-08T02:06:44;13.10;99.90
20574;DHT22;10445;50.216;7.912;2023-10-08T02:09:14;13.10;99.90
20574;DHT22;10445;50.216;7.912;2023-10-08T02:11:48;13.10;99.90
20574;DHT22;10445;50.216;7.912;2023-10-08T02:14:18;13.10;99.90
20574;DHT22;10445;50.216;7.912;2023-10-08T02:16:47;13.00;99.90
20574;DHT22;10445;50.216;7.912;2023-10-08T02:19:15;13.00;99.90
20574;DHT22;10445;50.216;7.912;2023-10-08T02:21:55;13.00;99.90
20574;DHT22;10445;50.216;7.912;2023-10-08T02:24:25;13.00;99.90
20574;DHT22;10445;50.216;7.912;2023-10-08T02:26:55;13.00;99.90
20574;DHT22;10445;50.216;7.912;2023-10-08T02:29:26;13.00;99.90
20574;DHT22;10445;50.216;7.912;2023-10-08T02:31:54;12.90;99.90
20574;DHT22;10445;50.216;7.912;2023-10-08T02:34:23;13.00;99.90
20574;DHT22;10445;50.216;7.912;2023-10-08T02:36:51;12.90;99.90
20574;DHT22;10445;50.216;7.912;2023-10-08T02:39:20;12.90;99.90
20574;DHT22;10445;50.216;7.912;2023-10-08T02:41:53;12.90;99.90
20574;DHT22;10445;50.216;7.912;2023-10-08T02:44:25;12.90;99.90
20574;DHT22;10445;50.216;7.912;2023-10-08T02:46:54;13.00;99.90
20574;DHT22;10445;50.216;7.912;2023-10-08T02:49:23;12.90;99.90
20574;DHT22;10445;50.216;7.912;2023-10-08T02:51:54;12.90;99.90
20574;DHT22;10445;50.216;7.912;2023-10-08T02:54:25;12.80;99.90
20574;DHT22;10445;50.216;7.912;2023-10-08T02:57:03;12.80;99.90
20574;DHT22;10445;50.216;7.912;2023-10-08T02:59:38;12.80;99.90
20574;DHT22;10445;50.216;7.912;2023-10-08T03:02:12;12.80;99.90
20574;DHT22;10445;50.216;7.912;2023-10-08T03:04:47;12.80;99.90
20574;DHT22;10445;50.216;7.912;2023-10-08T03:07:18;12.80;99.90
20574;DHT22;10445;50.216;7.912;2023-10-08T03:09:51;12.80;99.90
20574;DHT22;10445;50.216;7.912;2023-10-08T03:12:31;12.80;99.90
20574;DHT22;10445;50.216;7.912;2023-10-08T03:15:02;12.80;99.90
20574;DHT22;10445;50.216;7.912;2023-10-08T03:17:40;12.80;99.90
20574;DHT22;10445;50.216;7.912;2023-10-08T03:20:16;12.80;99.90
20574;DHT22;10445;50.216;7.912;2023-10-08T03:22:57;12.80;99.90
20574;DHT22;10445;50.216;7.912;2023-10-08T03:25:25;12.80;99.90
20574;DHT22;10445;50.216;7.912;2023-10-08T03:27:55;12.80;99.90
20574;DHT22;10445;50.216;7.912;2023-10-08T03:30:28;12.80;99.90
20574;DHT22;10445;50.216;7.912;2023-10-08T03:32:56;12.80;99.90
20574;DHT22;10445;50.216;7.912;2023-10-08T03:35:25;12.80;99.90
20574;DHT22;10445;50.216;7.912;2023-10-08T03:37:59;12.80;99.90
20574;DHT22;10445;50.216;7.912;2023-10-08T03:40:46;12.70;99.90
20574;DHT22;10445;50.216;7.912;2023-10-08T03:43:17;12.70;99.90
20574;DHT22;10445;50.216;7.912;2023-10-08T03:45:53;12.70;99.90
20574;DHT22;10445;50.216;7.912;2023-10-08T03:48:26;12.70;99.90
20574;DHT22;10445;50.216;7.912;2023-10-08T03:51:00;12.70;99.90
20574;DHT22;10445;50.216;7.912;2023-10-08T03:53:33;12.70;99.90
20574;DHT22;10445;50.216;7.912;2023-10-08T03:56:09;12.70;99.90
20574;DHT22;10445;50.216;7.912;2023-10-08T03:58:39;12.60;99.90
20574;DHT22;10445;50.216;7.912;2023-10-08T04:01:15;12.60;99.90
20574;DHT22;10445;50.216;7.912;2023-10-08T04:03:46;12.60;99.90
20574;DHT22;10445;50.216;7.912;2023-10-08T04:06:27;12.60;99.90
20574;DHT22;10445;50.216;7.912;2023-10-08T04:09:05;12.60;99.90
20574;DHT22;10445;50.216;7.912;2023-10-08T04:11:44;12.60;99.90
20574;DHT22;10445;50.216;7.912;2023-10-08T04:14:26;12.70;99.90
20574;DHT22;10445;50.216;7.912;2023-10-08T04:16:56;12.70;99.90
20574;DHT22;10445;50.216;7.912;2023-10-08T04:19:26;12.80;99.90
20574;DHT22;10445;50.216;7.912;2023-10-08T04:21:55;12.80;99.90
20574;DHT22;10445;50.216;7.912;2023-10-08T04:24:24;12.90;99.90
20574;DHT22;10445;50.216;7.912;2023-10-08T04:27:01;12.90;99.90
20574;DHT22;10445;50.216;7.912;2023-10-08T04:29:33;12.90;99.90
20574;DHT22;10445;50.216;7.912;2023-10-08T04:32:05;12.90;99.90
20574;DHT22;10445;50.216;7.912;2023-10-08T04:34:39;12.90;99.90
20574;DHT22;10445;50.216;7.912;2023-10-08T04:37:13;12.90;99.90
20574;DHT22;10445;50.216;7.912;2023-10-08T04:39:46;12.90;99.90
20574;DHT22;10445;50.216;7.912;2023-10-08T04:42:24;12.90;99.90
20574;DHT22;10445;50.216;7.912;2023-10-08T04:44:53;12.90;99.90
20574;DHT22;10445;50.216;7.912;2023-10-08T04:47:24;12.90;99.90
20574;DHT22;10445;50.216;7.912;2023-10-08T04:50:03;12.90;99.90
20574;DHT22;10445;50.216;7.912;2023-10-08T04:52:33;12.90;99.90
20574;DHT22;10445;50.216;7.912;2023-10-08T04:55:12;12.90;99.90
20574;DHT22;10445;50.216;7.912;2023-10-08T04:57:46;12.90;99.90
20574;DHT22;10445;50.216;7.912;2023-10-08T05:00:16;12.90;99.90
20574;DHT22;10445;50.216;7.912;2023-10-08T05:03:08;13.00;99.90
20574;DHT22;10445;50.216;7.912;2023-10-08T05:05:42;12.90;99.90
20574;DHT22;10445;50.216;7.912;2023-10-08T05:08:34;13.00;99.90
20574;DHT22;10445;50.216;7.912;2023-10-08T05:11:15;12.90;99.90
20574;DHT22;10445;50.216;7.912;2023-10-08T05:13:52;12.90;99.90
20574;DHT22;10445;50.216;7.912;2023-10-08T05:16:33;12.90;99.90
20574;DHT22;10445;50.216;7.912;2023-10-08T05:19:12;12.90;99.90
20574;DHT22;10445;50.216;7.912;2023-10-08T05:22:04;12.90;99.90
20574;DHT22;10445;50.216;7.912;2023-10-08T05:24:47;12.90;99.90
20574;DHT22;10445;50.216;7.912;2023-10-08T05:27:35;12.90;99.90
20574;DHT22;10445;50.216;7.912;2023-10-08T05:30:25;12.90;99.90
20574;DHT22;10445;50.216;7.912;2023-10-08T05:32:56;12.90;99.90
20574;DHT22;10445;50.216;7.912;2023-10-08T05:35:53;12.90;99.90
20574;DHT22;10445;50.216;7.912;2023-10-08T05:38:36;12.90;99.90
20574;DHT22;10445;50.216;7.912;2023-10-08T05:41:16;12.90;99.90
20574;DHT22;10445;50.216;7.912;2023-10-08T05:44:06;13.00;99.90
20574;DHT22;10445;50.216;7.912;2023-10-08T05:46:51;13.00;99.90
20574;DHT22;10445;50.216;7.912;2023-10-08T05:49:49;13.00;99.90
20574;DHT22;10445;50.216;7.912;2023-10-08T05:52:37;13.00;99.90
20574;DHT22;10445;50.216;7.912;2023-10-08T05:55:18;13.00;99.90
20574;DHT22;10445;50.216;7.912;2023-10-08T05:57:53;13.00;99.90
20574;DHT22;10445;50.216;7.912;2023-10-08T06:00:41;12.90;99.90
20574;DHT22;10445;50.216;7.912;2023-10-08T06:03:33;12.90;99.90
20574;DHT22;10445;50.216;7.912;2023-10-08T06:06:06;12.90;99.90
20574;DHT22;10445;50.216;7.912;2023-10-08T06:08:49;12.90;99.90
20574;DHT22;10445;50.216;7.912;2023-10-08T06:11:37;12.80;99.90
20574;DHT22;10445;50.216;7.912;2023-10-08T06:14:12;12.80;99.90
20574;DHT22;10445;50.216;7.912;2023-10-08T06:16:55;12.80;99.90
20574;DHT22;10445;50.216;7.912;2023-10-08T06:19:40;12.80;99.90
20574;DHT22;10445;50.216;7.912;2023-10-08T06:22:11;12.80;99.90
20574;DHT22;10445;50.216;7.912;2023-10-08T06:24:39;12.80;99.90
20574;DHT22;10445;50.216;7.912;2023-10-08T06:27:07;12.80;99.90
20574;DHT22;10445;50.216;7.912;2023-10-08T06:29:36;12.80;99.90
20574;DHT22;10445;50.216;7.912;2023-10-08T06:32:11;12.80;99.90
20574;DHT22;10445;50.216;7.912;2023-10-08T06:34:40;12.80;99.90
20574;DHT22;10445;50.216;7.912;2023-10-08T06:37:08;12.80;99.90
20574;DHT22;10445;50.216;7.912;2023-10-08T06:39:38;12.80;99.90
20574;DHT22;10445;50.216;7.912;2023-10-08T06:42:15;12.90;99.90
20574;DHT22;10445;50.216;7.912;2023-10-08T06:44:44;12.90;99.90
20574;DHT22;10445;50.216;7.912;2023-10-08T06:47:16;13.00;99.90
20574;DHT22;10445;50.216;7.912;2023-10-08T06:49:46;13.00;99.90
20574;DHT22;10445;50.216;7.912;2023-10-08T06:52:14;13.10;99.90
20574;DHT22;10445;50.216;7.912;2023-10-08T06:54:47;13.20;99.90
20574;DHT22;10445;50.216;7.912;2023-10-08T06:57:15;13.20;99.90
20574;DHT22;10445;50.216;7.912;2023-10-08T06:59:47;13.20;99.90
20574;DHT22;10445;50.216;7.912;2023-10-08T07:02:17;13.30;99.90
20574;DHT22;10445;50.216;7.912;2023-10-08T07:04:47;13.30;99.90
20574;DHT22;10445;50.216;7.912;2023-10-08T07:07:18;13.40;99.90
20574;DHT22;10445;50.216;7.912;2023-10-08T07:09:49;13.40;99.90
20574;DHT22;10445;50.216;7.912;2023-10-08T07:12:18;13.40;99.90
20574;DHT22;10445;50.216;7.912;2023-10-08T07:14:51;13.50;99.90
20574;DHT22;10445;50.216;7.912;2023-10-08T07:17:21;13.50;99.90
20574;DHT22;10445;50.216;7.912;2023-10-08T07:19:54;13.50;99.90
20574;DHT22;10445;50.216;7.912;2023-10-08T07:22:24;13.60;99.90
20574;DHT22;10445;50.216;7.912;2023-10-08T07:24:57;13.60;99.90
20574;DHT22;10445;50.216;7.912;2023-10-08T07:27:26;13.70;99.90
20574;DHT22;10445;50.216;7.912;2023-10-08T07:29:59;13.70;99.90
20574;DHT22;10445;50.216;7.912;2023-10-08T07:32:30;13.80;99.90
20574;DHT22;10445;50.216;7.912;2023-10-08T07:34:58;13.80;99.90
20574;DHT22;10445;50.216;7.912;2023-10-08T07:37:42;13.90;99.90
20574;DHT22;10445;50.216;7.912;2023-10-08T07:40:14;13.90;99.90
20574;DHT22;10445;50.216;7.912;2023-10-08T07:42:42;13.90;99.90
20574;DHT22;10445;50.216;7.912;2023-10-08T07:45:11;13.90;99.90
20574;DHT22;10445;50.216;7.912;2023-10-08T07:47:45;13.90;99.90
20574;DHT22;10445;50.216;7.912;2023-10-08T07:50:14;13.90;99.90
20574;DHT22;10445;50.216;7.912;2023-10-08T07:52:43;14.00;99.90
20574;DHT22;10445;50.216;7.912;2023-10-08T07:55:13;14.00;99.90
20574;DHT22;10445;50.216;7.912;2023-10-08T07:57:45;14.10;99.90
20574;DHT22;10445;50.216;7.912;2023-10-08T08:00:15;14.10;99.90
20574;DHT22;10445;50.216;7.912;2023-10-08T08:02:50;14.20;99.90
20574;DHT22;10445;50.216;7.912;2023-10-08T08:05:22;14.30;99.90
20574;DHT22;10445;50.216;7.912;2023-10-08T08:07:52;14.30;99.90
20574;DHT22;10445;50.216;7.912;2023-10-08T08:10:25;14.40;99.90
20574;DHT22;10445;50.216;7.912;2023-10-08T08:12:53;14.40;99.90
20574;DHT22;10445;50.216;7.912;2023-10-08T08:15:24;14.40;99.90
20574;DHT22;10445;50.216;7.912;2023-10-08T08:17:54;14.40;99.90
20574;DHT22;10445;50.216;7.912;2023-10-08T08:20:23;14.50;99.90
20574;DHT22;10445;50.216;7.912;2023-10-08T08:23:02;14.50;99.90
20574;DHT22;10445;50.216;7.912;2023-10-08T08:25:39;14.60;99.90
20574;DHT22;10445;50.216;7.912;2023-10-08T08:28:22;14.70;99.90
20574;DHT22;10445;50.216;7.912;2023-10-08T08:30:52;14.80;99.90
20574;DHT22;10445;50.216;7.912;2023-10-08T08:33:22;14.80;99.90
20574;DHT22;10445;50.216;7.912;2023-10-08T08:36:00;14.90;99.90
20574;DHT22;10445;50.216;7.912;2023-10-08T08:38:30;15.00;99.90
20574;DHT22;10445;50.216;7.912;2023-10-08T08:41:05;15.00;99.90
20574;DHT22;10445;50.216;7.912;2023-10-08T08:43:34;15.00;99.90
20574;DHT22;10445;50.216;7.912;2023-10-08T08:46:04;15.20;99.90
20574;DHT22;10445;50.216;7.912;2023-10-08T08:48:34;15.20;99.90
20574;DHT22;10445;50.216;7.912;2023-10-08T08:51:06;15.30;99.90
20574;DHT22;10445;50.216;7.912;2023-10-08T09:44:47;16.40;87.20
20574;DHT22;10445;50.216;7.912;2023-10-08T09:49:57;16.40;88.60
20574;DHT22;10445;50.216;7.912;2023-10-08T09:52:39;16.50;86.60
20574;DHT22;10445;50.216;7.912;2023-10-08T09:55:12;16.50;83.80
20574;DHT22;10445;50.216;7.912;2023-10-08T09:57:52;16.50;82.10
20574;DHT22;10445;50.216;7.912;2023-10-08T10:00:55;16.40;85.80
20574;DHT22;10445;50.216;7.912;2023-10-08T10:06:20;16.40;82.80
20574;DHT22;10445;50.216;7.912;2023-10-08T10:12:41;16.30;85.00
20574;DHT22;10445;50.216;7.912;2023-10-08T10:15:14;16.30;84.70
20574;DHT22;10445;50.216;7.912;2023-10-08T10:20:52;16.30;83.40
20574;DHT22;10445;50.216;7.912;2023-10-08T10:23:52;16.20;79.80
20574;DHT22;10445;50.216;7.912;2023-10-08T10:30:05;16.40;81.30
20574;DHT22;10445;50.216;7.912;2023-10-08T10:32:52;16.50;79.50
20574;DHT22;10445;50.216;7.912;2023-10-08T10:35:22;16.60;78.90
20574;DHT22;10445;50.216;7.912;2023-10-08T10:37:53;16.60;77.70
20574;DHT22;10445;50.216;7.912;2023-10-08T10:40:23;16.60;78.00
20574;DHT22;10445;50.216;7.912;2023-10-08T10:43:08;16.60;76.60
20574;DHT22;10445;50.216;7.912;2023-10-08T11:48:59;18.60;56.20
20574;DHT22;10445;50.216;7.912;2023-10-08T11:51:32;18.70;56.40
20574;DHT22;10445;50.216;7.912;2023-10-08T11:54:04;18.70;60.30
20574;DHT22;10445;50.216;7.912;2023-10-08T11:56:33;18.80;54.00
20574;DHT22;10445;50.216;7.912;2023-10-08T11:59:16;18.90;55.40
20574;DHT22;10445;50.216;7.912;2023-10-08T12:01:45;19.00;53.80
20574;DHT22;10445;50.216;7.912;2023-10-08T12:04:24;19.10;46.20
20574;DHT22;10445;50.216;7.912;2023-10-08T12:15:01;19.00;50.50
20574;DHT22;10445;50.216;7.912;2023-10-08T12:27:22;19.40;53.30
20574;DHT22;10445;50.216;7.912;2023-10-08T12:30:47;19.50;51.50
20574;DHT22;10445;50.216;7.912;2023-10-08T12:34:21;19.70;50.50
20574;DHT22;10445;50.216;7.912;2023-10-08T12:42:17;19.80;47.50
20574;DHT22;10445;50.216;7.912;2023-10-08T12:49:06;19.70;46.70
20574;DHT22;10445;50.216;7.912;2023-10-08T12:53:10;19.90;43.50
20574;DHT22;10445;50.216;7.912;2023-10-08T13:05:10;19.80;49.20
20574;DHT22;10445;50.216;7.912;2023-10-08T13:07:43;19.80;50.30
20574;DHT22;10445;50.216;7.912;2023-10-08T13:12:48;20.00;46.70
20574;DHT22;10445;50.216;7.912;2023-10-08T13:15:16;20.10;44.40
20574;DHT22;10445;50.216;7.912;2023-10-08T13:17:45;20.10;44.30
20574;DHT22;10445;50.216;7.912;2023-10-08T13:20:16;20.10;46.40
20574;DHT22;10445;50.216;7.912;2023-10-08T13:22:45;20.10;40.60
20574;DHT22;10445;50.216;7.912;2023-10-08T13:25:14;19.90;37.40
20574;DHT22;10445;50.216;7.912;2023-10-08T13:27:44;19.80;39.40
20574;DHT22;10445;50.216;7.912;2023-10-08T13:30:15;19.70;42.70
20574;DHT22;10445;50.216;7.912;2023-10-08T13:32:43;19.70;39.30
20574;DHT22;10445;50.216;7.912;2023-10-08T13:35:12;19.60;42.90
20574;DHT22;10445;50.216;7.912;2023-10-08T13:37:42;19.50;45.70
20574;DHT22;10445;50.216;7.912;2023-10-08T13:40:11;19.50;46.00
20574;DHT22;10445;50.216;7.912;2023-10-08T13:42:42;19.40;45.90
20574;DHT22;10445;50.216;7.912;2023-10-08T13:45:11;19.30;48.00
20574;DHT22;10445;50.216;7.912;2023-10-08T13:47:53;19.20;50.70
20574;DHT22;10445;50.216;7.912;2023-10-08T13:50:23;19.20;50.20
20574;DHT22;10445;50.216;7.912;2023-10-08T13:52:53;19.10;54.70
20574;DHT22;10445;50.216;7.912;2023-10-08T13:55:22;19.10;55.80
20574;DHT22;10445;50.216;7.912;2023-10-08T13:57:52;19.00;54.10
20574;DHT22;10445;50.216;7.912;2023-10-08T14:00:21;19.00;54.50
20574;DHT22;10445;50.216;7.912;2023-10-08T14:02:53;19.00;54.60
20574;DHT22;10445;50.216;7.912;2023-10-08T14:05:22;18.90;55.10
20574;DHT22;10445;50.216;7.912;2023-10-08T14:07:53;18.80;56.70
20574;DHT22;10445;50.216;7.912;2023-10-08T14:10:21;18.90;59.60
20574;DHT22;10445;50.216;7.912;2023-10-08T14:12:56;18.90;59.00
20574;DHT22;10445;50.216;7.912;2023-10-08T14:15:28;19.00;58.10
20574;DHT22;10445;50.216;7.912;2023-10-08T14:18:00;19.00;57.70
20574;DHT22;10445;50.216;7.912;2023-10-08T14:20:32;19.00;58.20
20574;DHT22;10445;50.216;7.912;2023-10-08T14:23:02;18.90;57.50
20574;DHT22;10445;50.216;7.912;2023-10-08T14:25:31;18.90;59.80
20574;DHT22;10445;50.216;7.912;2023-10-08T14:28:05;18.80;58.60
20574;DHT22;10445;50.216;7.912;2023-10-08T14:30:35;18.90;60.40
20574;DHT22;10445;50.216;7.912;2023-10-08T14:33:08;18.90;62.30
20574;DHT22;10445;50.216;7.912;2023-10-08T14:35:40;18.90;61.60
20574;DHT22;10445;50.216;7.912;2023-10-08T14:38:27;19.00;62.60
20574;DHT22;10445;50.216;7.912;2023-10-08T14:41:13;19.00;60.80
20574;DHT22;10445;50.216;7.912;2023-10-08T14:44:02;19.10;59.10
20574;DHT22;10445;50.216;7.912;2023-10-08T14:46:45;19.10;59.00
20574;DHT22;10445;50.216;7.912;2023-10-08T14:49:14;19.00;58.00
20574;DHT22;10445;50.216;7.912;2023-10-08T14:51:43;18.90;58.70
20574;DHT22;10445;50.216;7.912;2023-10-08T14:54:17;18.90;59.60
20574;DHT22;10445;50.216;7.912;2023-10-08T14:56:45;18.70;61.20
20574;DHT22;10445;50.216;7.912;2023-10-08T14:59:14;18.70;62.30
20574;DHT22;10445;50.216;7.912;2023-10-08T15:01:42;18.60;65.00
20574;DHT22;10445;50.216;7.912;2023-10-08T15:04:11;18.70;69.20
20574;DHT22;10445;50.216;7.912;2023-10-08T15:06:40;18.80;70.60
20574;DHT22;10445;50.216;7.912;2023-10-08T15:09:08;18.70;69.60
20574;DHT22;10445;50.216;7.912;2023-10-08T15:11:38;18.70;75.50
20574;DHT22;10445;50.216;7.912;2023-10-08T15:14:08;18.70;72.80
20574;DHT22;10445;50.216;7.912;2023-10-08T15:16:38;18.70;71.80
20574;DHT22;10445;50.216;7.912;2023-10-08T15:19:07;18.70;70.30
20574;DHT22;10445;50.216;7.912;2023-10-08T15:21:39;18.70;72.90
20574;DHT22;10445;50.216;7.912;2023-10-08T15:24:08;18.60;75.60
20574;DHT22;10445;50.216;7.912;2023-10-08T15:26:40;18.60;76.10
20574;DHT22;10445;50.216;7.912;2023-10-08T15:29:08;18.60;76.10
20574;DHT22;10445;50.216;7.912;2023-10-08T15:31:37;18.50;76.00
20574;DHT22;10445;50.216;7.912;2023-10-08T15:34:07;18.50;76.90
20574;DHT22;10445;50.216;7.912;2023-10-08T15:36:54;18.40;80.50
20574;DHT22;10445;50.216;7.912;2023-10-08T15:39:23;18.40;81.40
20574;DHT22;10445;50.216;7.912;2023-10-08T15:41:53;18.40;82.30
20574;DHT22;10445;50.216;7.912;2023-10-08T15:44:22;18.40;81.80
20574;DHT22;10445;50.216;7.912;2023-10-08T15:46:50;18.30;81.70
20574;DHT22;10445;50.216;7.912;2023-10-08T15:49:19;18.30;82.40
20574;DHT22;10445;50.216;7.912;2023-10-08T15:51:47;18.20;83.10
20574;DHT22;10445;50.216;7.912;2023-10-08T15:54:15;18.10;83.80
20574;DHT22;10445;50.216;7.912;2023-10-08T15:56:48;18.10;82.90
20574;DHT22;10445;50.216;7.912;2023-10-08T15:59:17;18.00;83.70
20574;DHT22;10445;50.216;7.912;2023-10-08T16:01:46;17.90;84.80
20574;DHT22;10445;50.216;7.912;2023-10-08T16:04:16;17.80;86.70
20574;DHT22;10445;50.216;7.912;2023-10-08T16:06:46;17.70;87.80
20574;DHT22;10445;50.216;7.912;2023-10-08T16:09:32;17.70;91.30
20574;DHT22;10445;50.216;7.912;2023-10-08T16:14:53;17.50;97.60
20574;DHT22;10445;50.216;7.912;2023-10-08T16:17:21;17.50;98.60
20574;DHT22;10445;50.216;7.912;2023-10-08T16:19:51;17.40;99.70
20574;DHT22;10445;50.216;7.912;2023-10-08T16:22:19;17.40;99.90
20574;DHT22;10445;50.216;7.912;2023-10-08T16:24:49;17.40;99.90
20574;DHT22;10445;50.216;7.912;2023-10-08T16:27:18;17.40;99.90
20574;DHT22;10445;50.216;7.912;2023-10-08T16:29:47;17.30;99.90
20574;DHT22;10445;50.216;7.912;2023-10-08T16:32:17;17.30;99.90
20574;DHT22;10445;50.216;7.912;2023-10-08T16:34:45;17.20;99.90
20574;DHT22;10445;50.216;7.912;2023-10-08T16:37:14;17.20;99.90
20574;DHT22;10445;50.216;7.912;2023-10-08T16:39:48;17.10;99.90
20574;DHT22;10445;50.216;7.912;2023-10-08T16:42:18;17.10;99.90
20574;DHT22;10445;50.216;7.912;2023-10-08T16:44:46;17.00;99.90
20574;DHT22;10445;50.216;7.912;2023-10-08T16:47:15;17.00;99.90
20574;DHT22;10445;50.216;7.912;2023-10-08T16:49:47;16.90;99.90
20574;DHT22;10445;50.216;7.912;2023-10-08T16:52:16;16.80;99.90
20574;DHT22;10445;50.216;7.912;2023-10-08T16:54:47;16.70;99.90
20574;DHT22;10445;50.216;7.912;2023-10-08T16:57:15;16.60;99.90
20574;DHT22;10445;50.216;7.912;2023-10-08T16:59:44;16.60;99.90
20574;DHT22;10445;50.216;7.912;2023-10-08T17:02:13;16.50;99.90
20574;DHT22;10445;50.216;7.912;2023-10-08T17:04:41;16.50;99.90
20574;DHT22;10445;50.216;7.912;2023-10-08T17:07:11;16.30;99.90
20574;DHT22;10445;50.216;7.912;2023-10-08T17:09:39;16.30;99.90
20574;DHT22;10445;50.216;7.912;2023-10-08T17:12:08;16.20;99.90
20574;DHT22;10445;50.216;7.912;2023-10-08T17:14:37;16.10;99.90
20574;DHT22;10445;50.216;7.912;2023-10-08T17:17:05;16.10;99.90
20574;DHT22;10445;50.216;7.912;2023-10-08T17:19:34;16.00;99.90
20574;DHT22;10445;50.216;7.912;2023-10-08T17:22:02;16.00;99.90
20574;DHT22;10445;50.216;7.912;2023-10-08T17:24:33;15.90;99.90
20574;DHT22;10445;50.216;7.912;2023-10-08T17:27:01;15.90;99.90
20574;DHT22;10445;50.216;7.912;2023-10-08T17:29:41;15.80;99.90
20574;DHT22;10445;50.216;7.912;2023-10-08T17:32:09;15.80;99.90
20574;DHT22;10445;50.216;7.912;2023-10-08T17:34:38;15.80;99.90
20574;DHT22;10445;50.216;7.912;2023-10-08T17:37:06;15.80;99.90
20574;DHT22;10445;50.216;7.912;2023-10-08T17:39:36;15.80;99.90
20574;DHT22;10445;50.216;7.912;2023-10-08T17:42:05;15.80;99.90
20574;DHT22;10445;50.216;7.912;2023-10-08T17:44:35;15.70;99.90
20574;DHT22;10445;50.216;7.912;2023-10-08T17:47:03;15.80;99.90
20574;DHT22;10445;50.216;7.912;2023-10-08T17:49:33;15.70;99.90
20574;DHT22;10445;50.216;7.912;2023-10-08T17:52:04;15.60;99.90
20574;DHT22;10445;50.216;7.912;2023-10-08T17:54:35;15.60;99.90
20574;DHT22;10445;50.216;7.912;2023-10-08T17:57:07;15.60;99.90
20574;DHT22;10445;50.216;7.912;2023-10-08T17:59:40;15.60;99.90
20574;DHT22;10445;50.216;7.912;2023-10-08T18:02:08;15.50;99.90
20574;DHT22;10445;50.216;7.912;2023-10-08T18:04:37;15.50;99.90
20574;DHT22;10445;50.216;7.912;2023-10-08T18:07:05;15.40;99.90
20574;DHT22;10445;50.216;7.912;2023-10-08T18:09:34;15.40;99.90
20574;DHT22;10445;50.216;7.912;2023-10-08T18:12:05;15.40;99.90
20574;DHT22;10445;50.216;7.912;2023-10-08T18:14:35;15.40;99.90
20574;DHT22;10445;50.216;7.912;2023-10-08T18:17:05;15.40;99.90
20574;DHT22;10445;50.216;7.912;2023-10-08T18:19:33;15.40;99.90
20574;DHT22;10445;50.216;7.912;2023-10-08T18:22:03;15.40;99.90
20574;DHT22;10445;50.216;7.912;2023-10-08T18:24:32;15.40;99.90
20574;DHT22;10445;50.216;7.912;2023-10-08T18:27:00;15.50;99.90
20574;DHT22;10445;50.216;7.912;2023-10-08T18:29:32;15.50;99.90
20574;DHT22;10445;50.216;7.912;2023-10-08T18:32:00;15.50;99.90
20574;DHT22;10445;50.216;7.912;2023-10-08T18:34:33;15.50;99.90
20574;DHT22;10445;50.216;7.912;2023-10-08T18:37:01;15.50;99.90
20574;DHT22;10445;50.216;7.912;2023-10-08T18:39:29;15.50;99.90
20574;DHT22;10445;50.216;7.912;2023-10-08T18:41:59;15.50;99.90
20574;DHT22;10445;50.216;7.912;2023-10-08T18:44:28;15.50;99.90
20574;DHT22;10445;50.216;7.912;2023-10-08T18:46:57;15.50;99.90
20574;DHT22;10445;50.216;7.912;2023-10-08T18:49:26;15.40;99.90
20574;DHT22;10445;50.216;7.912;2023-10-08T18:51:56;15.40;99.90
20574;DHT22;10445;50.216;7.912;2023-10-08T18:54:25;15.30;99.90
20574;DHT22;10445;50.216;7.912;2023-10-08T18:56:53;15.30;99.90
20574;DHT22;10445;50.216;7.912;2023-10-08T18:59:22;15.20;99.90
20574;DHT22;10445;50.216;7.912;2023-10-08T19:01:51;15.20;99.90